Main page
METAR-TAF:

METAR-TAF

Airports :

Bou Saada Airport

Bou Saâda, Algeria

latitude: 35-20N, longitude: 004-12E, elevation: 461 m

Current weather observation

The report was made 53 minutes ago, at 08:00 UTC
Wind 4 kt from the East/Northeast
Temperature 20°C
Humidity 49%
Pressure 1015 hPa
Visibility 10 km or more
no clouds below 1500 m and no cumulonimbus

METAR: DAAD 170800Z 07004KT CAVOK 20/09 Q1015

Time: 09:53 (08:53 UTC)

Forecast

The report was made 15 hours and 53 minutes ago, at 17:00 UTC
Forecast valid from 16 at 18 UTC to 17 at 03 UTC
Wind 10 kt from the North
Visibility 10 km or more
no clouds below 1500 m and no cumulonimbus

TAF: DAAD 161700Z 1618/1703 36010KT CAVOK

Weather observations and forecasts of more than 4000 airports (METAR and TAF reports).

The available stations are represented by yellow and red dots on the map.

Hover mouse over dot to see the name of the station.

Then click to see weather observations and forecasts.

To change the map : click on the green buttons with a black cross to zoom in, on the green button with a dash to zoom out, or on the green arrows for adjacent maps.


METAR-TAF: